Time;durP1;ratioP1;P1;durP2;ratioP2;P2;SDS_P1;SDS_P2;PMS_P1;PMS_P2;Temp;Humidity;BMP_temperature;BMP_pressure;BME280_temperature;BME280_humidity;BME280_pressure;Samples;Min_cycle;Max_cycle;Signal;HPM_P1;HPM_P2
2022/10/21 00:00:30;;;;;;;0.20;0.00;;;21.20;99.90;;;;;;26429821;22;20354;-77
2022/10/21 00:10:33;;;;;;;0.20;0.00;;;21.10;99.90;;;;;;26429955;22;20362;-78
2022/10/21 00:20:41;;;;;;;0.20;0.00;;;21.00;99.90;;;;;;26430379;22;20354;-80
2022/10/21 00:30:45;;;;;;;0.20;0.10;;;20.80;99.90;;;;;;26407960;22;20346;-79
2022/10/21 00:40:51;;;;;;;0.20;0.00;;;20.80;99.90;;;;;;26401432;22;20360;-76
2022/10/21 00:50:58;;;;;;;0.20;0.00;;;20.80;99.90;;;;;;26402726;22;20361;-78
2022/10/21 01:01:06;;;;;;;0.20;0.00;;;20.90;99.90;;;;;;26429049;22;20380;-78
2022/10/21 01:11:13;;;;;;;0.20;0.00;;;20.60;99.90;;;;;;26399491;22;20372;-78
2022/10/21 01:21:31;;;;;;;0.20;0.05;;;20.50;99.90;;;;;;26430125;22;20372;-77
2022/10/21 01:31:40;;;;;;;0.20;0.10;;;20.50;99.90;;;;;;26428473;22;20353;-78
2022/10/21 01:41:51;;;;;;;0.20;0.00;;;20.80;99.90;;;;;;26398392;22;20384;-81
2022/10/21 01:51:58;;;;;;;0.20;0.00;;;20.70;99.90;;;;;;26427428;22;20349;-80
2022/10/21 02:02:04;;;;;;;0.20;0.00;;;20.80;99.90;;;;;;26373077;22;20370;-81
2022/10/21 02:12:10;;;;;;;0.20;0.00;;;20.80;99.90;;;;;;26426541;22;20354;-80
2022/10/21 02:22:20;;;;;;;0.20;0.00;;;21.10;99.90;;;;;;26428464;22;20364;-81
2022/10/21 02:32:32;;;;;;;0.20;0.00;;;21.30;99.90;;;;;;26436972;22;20808;-81
2022/10/21 02:42:43;;;;;;;0.20;0.00;;;20.70;99.90;;;;;;26408784;22;20369;-78
2022/10/21 02:52:48;;;;;;;0.20;0.00;;;20.30;99.90;;;;;;26431913;22;20345;-80
2022/10/21 03:02:52;;;;;;;0.20;0.00;;;20.50;99.90;;;;;;26405367;22;20380;-78
2022/10/21 03:12:57;;;;;;;0.20;0.10;;;20.50;99.90;;;;;;26432182;22;20389;-80
2022/10/21 03:23:01;;;;;;;0.20;0.10;;;20.50;99.90;;;;;;26404168;22;20373;-77
2022/10/21 03:33:06;;;;;;;0.20;0.00;;;21.20;99.90;;;;;;26405377;22;20372;-75
2022/10/21 03:43:10;;;;;;;0.20;0.00;;;21.80;99.90;;;;;;26431802;22;20416;-79
2022/10/21 03:53:15;;;;;;;0.20;0.03;;;21.70;99.90;;;;;;26401377;22;20369;-76
2022/10/21 04:03:39;;;;;;;0.20;0.00;;;21.50;99.90;;;;;;26402764;22;20414;-79
2022/10/21 04:13:44;;;;;;;0.20;0.00;;;21.60;99.90;;;;;;26426572;22;20353;-81
2022/10/21 04:23:48;;;;;;;0.20;0.00;;;21.20;99.90;;;;;;26404203;22;20369;-81
2022/10/21 04:33:53;;;;;;;0.20;0.00;;;21.10;99.90;;;;;;26428466;22;20368;-77
2022/10/21 04:43:57;;;;;;;0.20;0.05;;;21.30;99.90;;;;;;26428772;22;20370;-78
2022/10/21 04:54:02;;;;;;;0.20;0.00;;;21.50;99.90;;;;;;26395838;22;20357;-78
2022/10/21 05:04:06;;;;;;;0.20;0.00;;;21.10;99.90;;;;;;26426841;22;20785;-79
2022/10/21 05:14:11;;;;;;;0.20;0.00;;;21.10;99.90;;;;;;26397957;22;20342;-77
2022/10/21 05:24:16;;;;;;;0.20;0.00;;;21.10;99.90;;;;;;26427137;22;20361;-72
2022/10/21 05:34:21;;;;;;;0.20;0.00;;;21.00;99.90;;;;;;26401124;22;20353;-81
2022/10/21 05:44:25;;;;;;;0.20;0.00;;;20.90;99.90;;;;;;26373451;22;20381;-81
2022/10/21 05:54:30;;;;;;;0.20;0.07;;;20.80;99.90;;;;;;26389103;22;20371;-79
2022/10/21 06:04:34;;;;;;;0.20;0.00;;;20.50;99.90;;;;;;26413498;22;20354;-79
2022/10/21 06:14:42;;;;;;;0.20;0.07;;;20.30;99.90;;;;;;26398388;22;20429;-82
2022/10/21 06:24:46;;;;;;;0.20;0.00;;;20.80;99.90;;;;;;26424896;22;20366;-81
2022/10/21 06:34:52;;;;;;;0.20;0.00;;;20.90;99.90;;;;;;26393953;22;20365;-80
2022/10/21 06:44:56;;;;;;;0.20;0.00;;;20.50;99.90;;;;;;26396299;22;20365;-80
2022/10/21 06:55:04;;;;;;;0.40;0.40;;;20.40;99.90;;;;;;26428334;22;20377;-83
2022/10/21 07:05:09;;;;;;;0.20;0.00;;;20.80;99.90;;;;;;26395095;22;20369;-80
2022/10/21 07:15:14;;;;;;;0.20;0.00;;;21.40;99.90;;;;;;26431088;22;20358;-83
2022/10/21 07:25:18;;;;;;;0.20;0.00;;;21.40;99.90;;;;;;26429976;22;20373;-81
2022/10/21 07:35:24;;;;;;;0.20;0.00;;;21.80;99.90;;;;;;26404138;22;20365;-82
2022/10/21 07:45:27;;;;;;;0.20;0.00;;;22.20;99.90;;;;;;26432184;22;20365;-82
2022/10/21 07:55:33;;;;;;;0.20;0.00;;;22.70;99.90;;;;;;26428159;22;20358;-83
2022/10/21 08:05:41;;;;;;;0.20;0.00;;;23.20;99.90;;;;;;26430733;22;20436;-77
2022/10/21 08:15:48;;;;;;;0.20;0.00;;;23.30;99.90;;;;;;26427719;22;20349;-82
2022/10/21 08:25:53;;;;;;;0.20;0.00;;;23.80;99.90;;;;;;26403148;22;20372;-78
2022/10/21 08:35:58;;;;;;;0.20;0.00;;;24.10;99.90;;;;;;26427404;22;20357;-83
2022/10/21 08:46:08;;;;;;;0.20;0.00;;;24.40;99.90;;;;;;26399479;22;20380;-79
2022/10/21 08:56:15;;;;;;;0.20;0.10;;;24.80;99.90;;;;;;26400045;22;20349;-81
2022/10/21 09:06:27;;;;;;;0.20;0.00;;;24.90;99.90;;;;;;26397583;22;20373;-81
2022/10/21 09:16:42;;;;;;;0.20;0.00;;;25.00;99.90;;;;;;26424479;22;20372;-80
2022/10/21 09:26:48;;;;;;;0.20;0.00;;;25.20;99.90;;;;;;26425154;22;20370;-79
2022/10/21 09:36:55;;;;;;;0.20;0.00;;;25.50;99.90;;;;;;26396280;22;20384;-82
2022/10/21 09:46:59;;;;;;;0.20;0.10;;;25.60;99.90;;;;;;26397243;22;20381;-81
2022/10/21 09:57:11;;;;;;;0.20;0.00;;;25.80;99.90;;;;;;26424827;22;20349;-81
2022/10/21 10:07:29;;;;;;;0.20;0.00;;;26.00;99.90;;;;;;26393369;22;20365;-81
2022/10/21 10:17:38;;;;;;;0.20;0.00;;;26.10;99.90;;;;;;26423804;22;20367;-79
2022/10/21 10:27:48;;;;;;;0.20;0.00;;;26.30;99.90;;;;;;26422270;22;20362;-82
2022/10/21 10:37:53;;;;;;;0.20;0.00;;;26.40;99.90;;;;;;26395101;22;20354;-77
2022/10/21 10:48:02;;;;;;;0.20;0.00;;;27.00;99.90;;;;;;26427721;22;20369;-79
2022/10/21 10:58:08;;;;;;;0.20;0.00;;;27.40;99.90;;;;;;26432786;22;20354;-81
2022/10/21 11:08:19;;;;;;;0.20;0.00;;;27.00;99.90;;;;;;26432770;22;20397;-80
2022/10/21 11:18:33;;;;;;;0.20;0.00;;;28.10;99.90;;;;;;26401467;22;20863;-79
2022/10/21 11:28:44;;;;;;;0.20;0.00;;;28.40;99.90;;;;;;26428898;22;20372;-79
2022/10/21 11:39:03;;;;;;;0.20;0.00;;;28.10;99.90;;;;;;26430795;22;20361;-76
2022/10/21 11:49:18;;;;;;;0.20;0.00;;;28.30;99.90;;;;;;26428365;22;20361;-82
2022/10/21 11:59:36;;;;;;;0.20;0.00;;;27.20;99.90;;;;;;26402005;22;20364;-81
2022/10/21 12:09:44;;;;;;;0.20;0.00;;;28.10;99.90;;;;;;26402144;22;20392;-78
2022/10/21 12:19:54;;;;;;;0.20;0.00;;;26.60;99.90;;;;;;26424821;22;20345;-78
2022/10/21 12:30:07;;;;;;;0.20;0.00;;;27.60;99.90;;;;;;26395580;22;20392;-81
2022/10/21 12:40:17;;;;;;;0.20;0.00;;;28.60;99.90;;;;;;26386659;22;20360;-81
2022/10/21 12:50:28;;;;;;;0.20;0.00;;;28.60;99.90;;;;;;26421420;22;20365;-79
2022/10/21 13:00:57;;;;;;;0.20;0.00;;;28.50;99.90;;;;;;26426372;22;20361;-79
2022/10/21 13:11:22;;;;;;;0.20;0.00;;;28.30;99.90;;;;;;26401234;22;20370;-80
2022/10/21 13:21:38;;;;;;;0.20;0.00;;;28.40;99.90;;;;;;26425897;22;20362;-81
2022/10/21 13:31:43;;;;;;;0.20;0.00;;;28.60;99.90;;;;;;26395995;22;20383;-79
2022/10/21 13:41:57;;;;;;;0.20;0.00;;;29.00;99.90;;;;;;26395837;22;20353;-79
2022/10/21 13:52:01;;;;;;;0.20;0.10;;;29.30;99.90;;;;;;26422056;22;20353;-81
2022/10/21 14:02:06;;;;;;;0.20;0.00;;;29.70;99.90;;;;;;26393424;22;20349;-79
2022/10/21 14:12:21;;;;;;;0.20;0.00;;;29.10;99.90;;;;;;26422731;22;20369;-80
2022/10/21 14:22:30;;;;;;;0.20;0.00;;;29.40;99.90;;;;;;26405307;22;20364;-79
2022/10/21 14:32:34;;;;;;;0.20;0.00;;;29.30;99.90;;;;;;26434673;22;20365;-79
2022/10/21 14:42:40;;;;;;;0.20;0.00;;;29.20;99.90;;;;;;26403023;22;20464;-78
2022/10/21 14:52:46;;;;;;;0.20;0.10;;;28.30;99.90;;;;;;26431094;22;20372;-81
2022/10/21 15:02:53;;;;;;;0.20;0.00;;;28.80;99.90;;;;;;26402481;22;20361;-77
2022/10/21 15:12:59;;;;;;;0.20;0.00;;;27.60;99.90;;;;;;26431331;22;20357;-82
2022/10/21 15:23:04;;;;;;;0.20;0.00;;;26.50;99.90;;;;;;26432083;22;20448;-73
2022/10/21 15:33:11;;;;;;;0.20;0.00;;;26.40;99.90;;;;;;26371108;22;20358;-78
2022/10/21 15:43:16;;;;;;;0.20;0.00;;;26.30;99.90;;;;;;26422312;22;20361;-83
2022/10/21 15:53:20;;;;;;;0.20;0.00;;;26.20;99.90;;;;;;26423403;22;20366;-79
2022/10/21 16:03:26;;;;;;;0.20;0.00;;;25.70;99.90;;;;;;26421927;22;20369;-80
2022/10/21 16:13:30;;;;;;;0.20;0.00;;;25.40;99.90;;;;;;26419290;22;20357;-79
2022/10/21 16:23:36;;;;;;;0.20;0.00;;;25.40;99.90;;;;;;26392889;22;20356;-78
2022/10/21 16:33:40;;;;;;;0.20;0.00;;;25.30;99.90;;;;;;26421117;22;20376;-78
2022/10/21 16:43:46;;;;;;;0.20;0.00;;;25.30;99.90;;;;;;26420174;22;20349;-82
2022/10/21 16:53:50;;;;;;;0.20;0.00;;;25.20;99.90;;;;;;26420390;22;20361;-80
2022/10/21 17:03:55;;;;;;;0.20;0.00;;;25.00;99.90;;;;;;26421039;22;20372;-81
2022/10/21 17:13:59;;;;;;;0.20;0.00;;;24.80;99.90;;;;;;26419441;22;20361;-83
2022/10/21 17:24:05;;;;;;;0.20;0.00;;;24.60;99.90;;;;;;26392145;22;20346;-83
2022/10/21 17:34:22;;;;;;;0.20;0.00;;;24.50;99.90;;;;;;26389909;22;20350;-76
2022/10/21 17:44:28;;;;;;;0.20;0.00;;;24.50;99.90;;;;;;26423612;22;20358;-83
2022/10/21 17:54:31;;;;;;;0.20;0.00;;;24.50;99.90;;;;;;26390738;22;20349;-78
2022/10/21 18:04:42;;;;;;;0.20;0.00;;;24.40;99.90;;;;;;26421882;22;20441;-83
2022/10/21 18:14:46;;;;;;;0.20;0.00;;;24.10;99.90;;;;;;26418801;22;20353;-83
2022/10/21 18:24:51;;;;;;;0.20;0.00;;;24.10;99.90;;;;;;26418849;22;20366;-81
2022/10/21 18:34:56;;;;;;;0.20;0.00;;;24.20;99.90;;;;;;26417106;22;20428;-82
2022/10/21 18:45:01;;;;;;;0.20;0.00;;;24.00;99.90;;;;;;26420237;22;20397;-83
2022/10/21 18:55:06;;;;;;;0.20;0.05;;;23.90;99.90;;;;;;26420713;22;20357;-81
2022/10/21 19:05:11;;;;;;;0.20;0.03;;;23.70;99.90;;;;;;26419743;22;20365;-84
2022/10/21 19:15:15;;;;;;;0.20;0.00;;;23.10;99.90;;;;;;26426126;22;20354;-82
2022/10/21 19:25:20;;;;;;;0.20;0.00;;;22.80;99.90;;;;;;26425452;22;20353;-83
2022/10/21 19:35:24;;;;;;;0.20;0.00;;;22.70;99.90;;;;;;26424043;22;20358;-81
2022/10/21 19:45:29;;;;;;;0.20;0.00;;;22.50;99.90;;;;;;26423025;22;20369;-84
2022/10/21 19:55:33;;;;;;;0.20;0.00;;;22.40;99.90;;;;;;26425302;22;20362;-83
2022/10/21 20:05:41;;;;;;;0.20;0.00;;;22.80;99.90;;;;;;26394889;22;20366;-85
2022/10/21 20:15:47;;;;;;;0.20;0.00;;;22.30;99.90;;;;;;26424583;22;20354;-83
2022/10/21 20:25:54;;;;;;;0.20;0.00;;;22.30;99.90;;;;;;26424937;22;20376;-82
2022/10/21 20:36:02;;;;;;;0.20;0.00;;;22.60;99.90;;;;;;26371464;22;20358;-83
2022/10/21 20:46:09;;;;;;;0.20;0.00;;;22.60;99.90;;;;;;26424583;22;20422;-83
2022/10/21 20:56:13;;;;;;;0.20;0.00;;;22.50;99.90;;;;;;26396605;22;20365;-82
2022/10/21 21:06:20;;;;;;;0.20;0.00;;;22.30;99.90;;;;;;26427418;22;20365;-82
2022/10/21 21:16:24;;;;;;;0.20;0.00;;;22.40;99.90;;;;;;26426140;22;20358;-83
2022/10/21 21:26:31;;;;;;;0.20;0.00;;;22.20;99.90;;;;;;26427176;22;20373;-87
2022/10/21 21:36:35;;;;;;;0.20;0.00;;;21.80;99.90;;;;;;26424047;22;20368;-82
2022/10/21 21:46:40;;;;;;;0.20;0.00;;;21.40;99.90;;;;;;26424375;22;20392;-81
2022/10/21 21:56:44;;;;;;;0.20;0.00;;;21.30;99.90;;;;;;26421585;22;20358;-82
2022/10/21 22:06:50;;;;;;;0.20;0.00;;;20.90;99.90;;;;;;26396844;22;20388;-80
2022/10/21 22:16:53;;;;;;;0.20;0.00;;;20.90;99.90;;;;;;26398915;22;20370;-83
2022/10/21 22:26:59;;;;;;;0.20;0.00;;;20.90;99.90;;;;;;26426021;22;20369;-79
2022/10/21 22:37:02;;;;;;;0.20;0.00;;;21.00;99.90;;;;;;26430226;22;20354;-82
2022/10/21 22:47:07;;;;;;;0.20;0.00;;;20.70;99.90;;;;;;26434723;22;20376;-82
2022/10/21 22:57:11;;;;;;;0.20;0.00;;;20.50;99.90;;;;;;26434140;22;20357;-82
2022/10/21 23:07:16;;;;;;;0.20;0.00;;;20.60;99.90;;;;;;26376154;22;20450;-81
2022/10/21 23:17:20;;;;;;;0.20;0.10;;;20.70;99.90;;;;;;26431488;22;20353;-80
2022/10/21 23:27:26;;;;;;;0.20;0.00;;;20.80;99.90;;;;;;26431144;22;20373;-82
2022/10/21 23:37:30;;;;;;;0.20;0.00;;;21.30;99.90;;;;;;26428960;22;20404;-79
2022/10/21 23:47:36;;;;;;;0.20;0.00;;;21.20;99.90;;;;;;26429833;22;20361;-77
2022/10/21 23:57:41;;;;;;;0.20;0.00;;;21.30;99.90;;;;;;26429174;22;20373;-78
